sensor_id;sensor_type;location;lat;lon;timestamp;temperature;humidity
56498;DHT22;51790;45.558;12.076;2023-03-14T00:05:40;11.80;75.90
56498;DHT22;51790;45.558;12.076;2023-03-14T00:11:44;11.80;76.20
56498;DHT22;51790;45.558;12.076;2023-03-14T00:17:45;11.90;76.20
56498;DHT22;51790;45.558;12.076;2023-03-14T00:23:46;11.80;76.50
56498;DHT22;51790;45.558;12.076;2023-03-14T00:29:48;11.80;76.80
56498;DHT22;51790;45.558;12.076;2023-03-14T00:35:55;11.80;77.10
56498;DHT22;51790;45.558;12.076;2023-03-14T00:41:57;11.70;77.40
56498;DHT22;51790;45.558;12.076;2023-03-14T00:47:58;11.80;77.60
56498;DHT22;51790;45.558;12.076;2023-03-14T00:54:00;11.80;77.80
56498;DHT22;51790;45.558;12.076;2023-03-14T01:00:01;11.80;78.60
56498;DHT22;51790;45.558;12.076;2023-03-14T01:06:14;11.80;79.20
56498;DHT22;51790;45.558;12.076;2023-03-14T01:12:17;11.70;79.80
56498;DHT22;51790;45.558;12.076;2023-03-14T01:18:18;11.70;80.40
56498;DHT22;51790;45.558;12.076;2023-03-14T01:24:20;11.70;80.20
56498;DHT22;51790;45.558;12.076;2023-03-14T01:30:21;11.60;80.80
56498;DHT22;51790;45.558;12.076;2023-03-14T01:36:23;11.60;81.10
56498;DHT22;51790;45.558;12.076;2023-03-14T01:42:25;11.70;80.70
56498;DHT22;51790;45.558;12.076;2023-03-14T01:48:27;11.60;81.40
56498;DHT22;51790;45.558;12.076;2023-03-14T02:00:36;11.60;82.30
56498;DHT22;51790;45.558;12.076;2023-03-14T02:06:58;11.60;82.80
56498;DHT22;51790;45.558;12.076;2023-03-14T02:13:06;11.70;82.70
56498;DHT22;51790;45.558;12.076;2023-03-14T02:19:49;11.60;83.20
56498;DHT22;51790;45.558;12.076;2023-03-14T02:26:15;11.60;83.40
56498;DHT22;51790;45.558;12.076;2023-03-14T02:32:17;11.60;83.50
56498;DHT22;51790;45.558;12.076;2023-03-14T02:38:33;11.70;83.20
56498;DHT22;51790;45.558;12.076;2023-03-14T02:44:51;11.50;83.50
56498;DHT22;51790;45.558;12.076;2023-03-14T02:50:55;11.40;83.60
56498;DHT22;51790;45.558;12.076;2023-03-14T02:56:57;11.40;83.50
56498;DHT22;51790;45.558;12.076;2023-03-14T03:02:59;11.50;83.00
56498;DHT22;51790;45.558;12.076;2023-03-14T03:09:00;11.50;83.10
56498;DHT22;51790;45.558;12.076;2023-03-14T03:15:02;11.50;83.00
56498;DHT22;51790;45.558;12.076;2023-03-14T03:21:04;11.50;83.10
56498;DHT22;51790;45.558;12.076;2023-03-14T03:27:06;11.40;83.10
56498;DHT22;51790;45.558;12.076;2023-03-14T03:33:08;11.50;83.10
56498;DHT22;51790;45.558;12.076;2023-03-14T03:39:10;11.40;83.40
56498;DHT22;51790;45.558;12.076;2023-03-14T03:45:11;11.50;83.40
56498;DHT22;51790;45.558;12.076;2023-03-14T03:51:23;11.50;83.40
56498;DHT22;51790;45.558;12.076;2023-03-14T03:57:24;11.40;83.80
56498;DHT22;51790;45.558;12.076;2023-03-14T04:03:25;11.40;83.80
56498;DHT22;51790;45.558;12.076;2023-03-14T04:09:29;11.50;83.60
56498;DHT22;51790;45.558;12.076;2023-03-14T04:16:09;11.50;83.60
56498;DHT22;51790;45.558;12.076;2023-03-14T04:22:14;11.50;83.70
56498;DHT22;51790;45.558;12.076;2023-03-14T04:28:23;11.50;83.60
56498;DHT22;51790;45.558;12.076;2023-03-14T04:34:24;11.50;83.50
56498;DHT22;51790;45.558;12.076;2023-03-14T04:40:29;11.50;82.80
56498;DHT22;51790;45.558;12.076;2023-03-14T04:46:35;11.40;82.40
56498;DHT22;51790;45.558;12.076;2023-03-14T04:52:39;11.40;82.40
56498;DHT22;51790;45.558;12.076;2023-03-14T04:58:40;11.40;82.80
56498;DHT22;51790;45.558;12.076;2023-03-14T05:04:42;11.30;83.20
56498;DHT22;51790;45.558;12.076;2023-03-14T05:11:16;11.20;83.90
56498;DHT22;51790;45.558;12.076;2023-03-14T05:17:35;11.20;83.60
56498;DHT22;51790;45.558;12.076;2023-03-14T05:24:03;11.30;83.50
56498;DHT22;51790;45.558;12.076;2023-03-14T05:30:25;11.30;83.40
56498;DHT22;51790;45.558;12.076;2023-03-14T05:36:45;11.20;83.50
56498;DHT22;51790;45.558;12.076;2023-03-14T05:43:03;11.10;83.30
56498;DHT22;51790;45.558;12.076;2023-03-14T05:49:21;11.20;83.00
56498;DHT22;51790;45.558;12.076;2023-03-14T05:55:30;11.20;82.80
56498;DHT22;51790;45.558;12.076;2023-03-14T06:01:58;11.20;83.10
56498;DHT22;51790;45.558;12.076;2023-03-14T06:08:02;11.10;83.10
56498;DHT22;51790;45.558;12.076;2023-03-14T06:14:06;11.20;83.10
56498;DHT22;51790;45.558;12.076;2023-03-14T06:20:08;11.20;83.30
56498;DHT22;51790;45.558;12.076;2023-03-14T06:26:10;11.30;83.30
56498;DHT22;51790;45.558;12.076;2023-03-14T06:32:13;11.30;83.20
56498;DHT22;51790;45.558;12.076;2023-03-14T06:38:15;11.40;82.90
56498;DHT22;51790;45.558;12.076;2023-03-14T06:44:17;11.50;82.90
56498;DHT22;51790;45.558;12.076;2023-03-14T06:50:18;11.50;83.10
56498;DHT22;51790;45.558;12.076;2023-03-14T06:56:22;11.30;83.90
56498;DHT22;51790;45.558;12.076;2023-03-14T07:02:24;11.30;84.90
56498;DHT22;51790;45.558;12.076;2023-03-14T07:08:25;11.10;86.00
56498;DHT22;51790;45.558;12.076;2023-03-14T07:14:27;11.20;86.10
56498;DHT22;51790;45.558;12.076;2023-03-14T07:20:29;11.10;86.60
56498;DHT22;51790;45.558;12.076;2023-03-14T07:26:33;10.80;88.10
56498;DHT22;51790;45.558;12.076;2023-03-14T07:32:35;10.80;88.00
56498;DHT22;51790;45.558;12.076;2023-03-14T07:38:36;10.80;88.10
56498;DHT22;51790;45.558;12.076;2023-03-14T07:45:07;10.90;88.00
56498;DHT22;51790;45.558;12.076;2023-03-14T07:51:08;11.10;87.50
56498;DHT22;51790;45.558;12.076;2023-03-14T07:57:10;11.40;87.30
56498;DHT22;51790;45.558;12.076;2023-03-14T08:03:11;11.50;87.60
56498;DHT22;51790;45.558;12.076;2023-03-14T08:09:12;11.70;86.90
56498;DHT22;51790;45.558;12.076;2023-03-14T08:15:13;11.40;87.30
56498;DHT22;51790;45.558;12.076;2023-03-14T08:21:15;11.60;87.70
56498;DHT22;51790;45.558;12.076;2023-03-14T08:27:16;11.70;87.80
56498;DHT22;51790;45.558;12.076;2023-03-14T08:33:17;12.20;86.70
56498;DHT22;51790;45.558;12.076;2023-03-14T08:39:19;11.80;88.00
56498;DHT22;51790;45.558;12.076;2023-03-14T08:45:20;12.00;87.20
56498;DHT22;51790;45.558;12.076;2023-03-14T08:51:22;12.10;87.40
56498;DHT22;51790;45.558;12.076;2023-03-14T08:57:24;12.20;87.60
56498;DHT22;51790;45.558;12.076;2023-03-14T09:03:28;11.90;88.00
56498;DHT22;51790;45.558;12.076;2023-03-14T09:09:29;12.00;87.90
56498;DHT22;51790;45.558;12.076;2023-03-14T09:21:55;12.10;87.70
56498;DHT22;51790;45.558;12.076;2023-03-14T09:27:58;12.30;88.10
56498;DHT22;51790;45.558;12.076;2023-03-14T09:33:59;12.70;86.80
56498;DHT22;51790;45.558;12.076;2023-03-14T09:40:00;12.40;87.00
56498;DHT22;51790;45.558;12.076;2023-03-14T09:46:02;12.20;88.20
56498;DHT22;51790;45.558;12.076;2023-03-14T09:58:34;11.90;88.60
56498;DHT22;51790;45.558;12.076;2023-03-14T10:04:36;11.90;89.10
56498;DHT22;51790;45.558;12.076;2023-03-14T10:10:43;12.00;88.80
56498;DHT22;51790;45.558;12.076;2023-03-14T10:16:45;12.00;88.70
56498;DHT22;51790;45.558;12.076;2023-03-14T10:22:46;12.20;88.40
56498;DHT22;51790;45.558;12.076;2023-03-14T10:28:52;12.20;88.30
56498;DHT22;51790;45.558;12.076;2023-03-14T10:35:04;12.30;88.20
56498;DHT22;51790;45.558;12.076;2023-03-14T10:41:24;12.50;88.30
56498;DHT22;51790;45.558;12.076;2023-03-14T10:47:26;12.50;87.90
56498;DHT22;51790;45.558;12.076;2023-03-14T10:53:39;12.50;87.60
56498;DHT22;51790;45.558;12.076;2023-03-14T10:59:42;12.40;88.00
56498;DHT22;51790;45.558;12.076;2023-03-14T11:05:53;12.50;88.10
56498;DHT22;51790;45.558;12.076;2023-03-14T11:25:21;12.70;87.30
56498;DHT22;51790;45.558;12.076;2023-03-14T11:31:29;13.10;86.90
56498;DHT22;51790;45.558;12.076;2023-03-14T11:37:33;13.30;86.30
56498;DHT22;51790;45.558;12.076;2023-03-14T11:43:38;13.30;85.40
56498;DHT22;51790;45.558;12.076;2023-03-14T11:49:50;13.60;84.60
56498;DHT22;51790;45.558;12.076;2023-03-14T11:55:54;13.40;84.70
56498;DHT22;51790;45.558;12.076;2023-03-14T12:01:57;13.60;84.10
56498;DHT22;51790;45.558;12.076;2023-03-14T12:14:16;13.60;84.10
56498;DHT22;51790;45.558;12.076;2023-03-14T12:27:06;13.40;84.60
56498;DHT22;51790;45.558;12.076;2023-03-14T12:33:10;13.30;85.40
56498;DHT22;51790;45.558;12.076;2023-03-14T12:39:24;13.30;84.90
56498;DHT22;51790;45.558;12.076;2023-03-14T12:45:32;13.30;83.90
56498;DHT22;51790;45.558;12.076;2023-03-14T12:51:36;13.10;85.90
56498;DHT22;51790;45.558;12.076;2023-03-14T12:57:45;13.10;85.80
56498;DHT22;51790;45.558;12.076;2023-03-14T13:03:52;13.50;85.70
56498;DHT22;51790;45.558;12.076;2023-03-14T13:09:55;14.10;83.50
56498;DHT22;51790;45.558;12.076;2023-03-14T13:16:02;15.30;80.90
56498;DHT22;51790;45.558;12.076;2023-03-14T13:28:27;13.80;84.10
56498;DHT22;51790;45.558;12.076;2023-03-14T13:34:29;13.70;85.10
56498;DHT22;51790;45.558;12.076;2023-03-14T13:40:32;13.70;84.70
56498;DHT22;51790;45.558;12.076;2023-03-14T13:46:35;14.00;83.50
56498;DHT22;51790;45.558;12.076;2023-03-14T13:52:37;14.00;84.20
56498;DHT22;51790;45.558;12.076;2023-03-14T13:58:39;13.80;83.90
56498;DHT22;51790;45.558;12.076;2023-03-14T14:04:41;13.90;84.10
56498;DHT22;51790;45.558;12.076;2023-03-14T14:10:43;14.00;83.90
56498;DHT22;51790;45.558;12.076;2023-03-14T14:16:51;14.00;84.00
56498;DHT22;51790;45.558;12.076;2023-03-14T14:22:53;13.80;83.90
56498;DHT22;51790;45.558;12.076;2023-03-14T14:29:02;13.90;84.00
56498;DHT22;51790;45.558;12.076;2023-03-14T14:35:04;14.00;82.10
56498;DHT22;51790;45.558;12.076;2023-03-14T14:41:10;14.30;82.00
56498;DHT22;51790;45.558;12.076;2023-03-14T14:47:15;13.80;82.40
56498;DHT22;51790;45.558;12.076;2023-03-14T14:53:21;13.70;83.00
56498;DHT22;51790;45.558;12.076;2023-03-14T14:59:25;13.80;83.40
56498;DHT22;51790;45.558;12.076;2023-03-14T15:05:29;13.90;83.90
56498;DHT22;51790;45.558;12.076;2023-03-14T15:11:32;13.90;84.30
56498;DHT22;51790;45.558;12.076;2023-03-14T15:17:34;13.80;83.50
56498;DHT22;51790;45.558;12.076;2023-03-14T15:23:36;14.30;82.50
56498;DHT22;51790;45.558;12.076;2023-03-14T15:29:38;14.80;81.30
56498;DHT22;51790;45.558;12.076;2023-03-14T15:35:40;14.50;79.90
56498;DHT22;51790;45.558;12.076;2023-03-14T15:41:42;14.20;81.40
56498;DHT22;51790;45.558;12.076;2023-03-14T15:47:43;14.40;81.10
56498;DHT22;51790;45.558;12.076;2023-03-14T15:53:45;14.10;81.60
56498;DHT22;51790;45.558;12.076;2023-03-14T15:59:46;13.70;82.50
56498;DHT22;51790;45.558;12.076;2023-03-14T16:05:48;13.50;83.00
56498;DHT22;51790;45.558;12.076;2023-03-14T16:11:49;13.20;84.10
56498;DHT22;51790;45.558;12.076;2023-03-14T16:17:54;13.00;84.40
56498;DHT22;51790;45.558;12.076;2023-03-14T16:23:55;13.00;84.70
56498;DHT22;51790;45.558;12.076;2023-03-14T16:29:57;12.90;85.00
56498;DHT22;51790;45.558;12.076;2023-03-14T16:36:00;12.90;85.20
56498;DHT22;51790;45.558;12.076;2023-03-14T16:42:05;12.80;85.60
56498;DHT22;51790;45.558;12.076;2023-03-14T16:48:07;12.70;86.10
56498;DHT22;51790;45.558;12.076;2023-03-14T16:54:08;12.60;86.40
56498;DHT22;51790;45.558;12.076;2023-03-14T17:00:09;12.70;85.90
56498;DHT22;51790;45.558;12.076;2023-03-14T17:06:16;12.60;86.30
56498;DHT22;51790;45.558;12.076;2023-03-14T17:12:17;12.50;86.50
56498;DHT22;51790;45.558;12.076;2023-03-14T17:18:21;12.40;87.00
56498;DHT22;51790;45.558;12.076;2023-03-14T17:24:22;12.60;86.90
56498;DHT22;51790;45.558;12.076;2023-03-14T17:30:23;12.50;86.40
56498;DHT22;51790;45.558;12.076;2023-03-14T17:36:25;12.60;86.20
56498;DHT22;51790;45.558;12.076;2023-03-14T17:42:30;12.50;86.80
56498;DHT22;51790;45.558;12.076;2023-03-14T17:48:31;12.50;87.20
56498;DHT22;51790;45.558;12.076;2023-03-14T17:54:33;12.40;87.10
56498;DHT22;51790;45.558;12.076;2023-03-14T18:00:34;12.30;87.50
56498;DHT22;51790;45.558;12.076;2023-03-14T18:06:36;12.20;88.20
56498;DHT22;51790;45.558;12.076;2023-03-14T18:12:38;12.10;88.20
56498;DHT22;51790;45.558;12.076;2023-03-14T18:18:42;12.20;88.10
56498;DHT22;51790;45.558;12.076;2023-03-14T18:24:44;12.20;87.90
56498;DHT22;51790;45.558;12.076;2023-03-14T18:30:45;12.30;87.80
56498;DHT22;51790;45.558;12.076;2023-03-14T18:36:52;12.30;88.10
56498;DHT22;51790;45.558;12.076;2023-03-14T18:42:54;12.30;88.20
56498;DHT22;51790;45.558;12.076;2023-03-14T18:48:55;12.30;88.20
56498;DHT22;51790;45.558;12.076;2023-03-14T18:54:57;12.30;88.30
56498;DHT22;51790;45.558;12.076;2023-03-14T19:01:02;12.40;88.00
56498;DHT22;51790;45.558;12.076;2023-03-14T19:07:04;12.30;88.20
56498;DHT22;51790;45.558;12.076;2023-03-14T19:13:06;12.30;88.20
56498;DHT22;51790;45.558;12.076;2023-03-14T19:19:08;12.30;88.10
56498;DHT22;51790;45.558;12.076;2023-03-14T19:25:09;12.20;88.00
56498;DHT22;51790;45.558;12.076;2023-03-14T19:31:11;12.30;87.80
56498;DHT22;51790;45.558;12.076;2023-03-14T19:37:12;12.20;88.10
56498;DHT22;51790;45.558;12.076;2023-03-14T19:43:13;12.10;88.50
56498;DHT22;51790;45.558;12.076;2023-03-14T19:49:15;12.00;88.70
56498;DHT22;51790;45.558;12.076;2023-03-14T19:55:16;11.90;88.80
56498;DHT22;51790;45.558;12.076;2023-03-14T20:01:18;12.00;88.80
56498;DHT22;51790;45.558;12.076;2023-03-14T20:07:19;12.00;88.60
56498;DHT22;51790;45.558;12.076;2023-03-14T20:13:22;11.90;88.90
56498;DHT22;51790;45.558;12.076;2023-03-14T20:19:23;11.90;88.70
56498;DHT22;51790;45.558;12.076;2023-03-14T20:25:25;11.80;89.00
56498;DHT22;51790;45.558;12.076;2023-03-14T20:31:26;11.80;88.80
56498;DHT22;51790;45.558;12.076;2023-03-14T20:37:28;11.80;88.70
56498;DHT22;51790;45.558;12.076;2023-03-14T20:43:30;11.70;88.90
56498;DHT22;51790;45.558;12.076;2023-03-14T20:49:32;11.60;88.60
56498;DHT22;51790;45.558;12.076;2023-03-14T20:55:33;11.60;88.40
56498;DHT22;51790;45.558;12.076;2023-03-14T21:01:35;11.60;88.30
56498;DHT22;51790;45.558;12.076;2023-03-14T21:07:36;11.60;88.00
56498;DHT22;51790;45.558;12.076;2023-03-14T21:13:41;11.50;88.10
56498;DHT22;51790;45.558;12.076;2023-03-14T21:19:43;11.30;88.40
56498;DHT22;51790;45.558;12.076;2023-03-14T21:25:45;11.30;88.60
56498;DHT22;51790;45.558;12.076;2023-03-14T21:31:47;11.20;88.50
56498;DHT22;51790;45.558;12.076;2023-03-14T21:37:49;11.20;88.20
56498;DHT22;51790;45.558;12.076;2023-03-14T21:43:51;11.20;88.30
56498;DHT22;51790;45.558;12.076;2023-03-14T21:49:52;11.10;88.30
56498;DHT22;51790;45.558;12.076;2023-03-14T21:55:53;11.20;88.00
56498;DHT22;51790;45.558;12.076;2023-03-14T22:01:55;11.10;88.20
56498;DHT22;51790;45.558;12.076;2023-03-14T22:07:57;11.20;88.30
56498;DHT22;51790;45.558;12.076;2023-03-14T22:14:02;11.10;88.50
56498;DHT22;51790;45.558;12.076;2023-03-14T22:20:04;11.10;88.60
56498;DHT22;51790;45.558;12.076;2023-03-14T22:26:10;11.10;88.60
56498;DHT22;51790;45.558;12.076;2023-03-14T22:32:11;11.00;88.80
56498;DHT22;51790;45.558;12.076;2023-03-14T22:38:13;10.90;89.20
56498;DHT22;51790;45.558;12.076;2023-03-14T22:44:14;10.80;89.70
56498;DHT22;51790;45.558;12.076;2023-03-14T22:50:15;10.70;89.90
56498;DHT22;51790;45.558;12.076;2023-03-14T22:56:17;10.60;90.20
56498;DHT22;51790;45.558;12.076;2023-03-14T23:02:18;10.60;90.40
56498;DHT22;51790;45.558;12.076;2023-03-14T23:08:19;10.40;90.50
56498;DHT22;51790;45.558;12.076;2023-03-14T23:14:22;10.40;90.60
56498;DHT22;51790;45.558;12.076;2023-03-14T23:20:23;10.40;90.40
56498;DHT22;51790;45.558;12.076;2023-03-14T23:26:25;10.50;90.20
56498;DHT22;51790;45.558;12.076;2023-03-14T23:32:27;10.50;90.20
56498;DHT22;51790;45.558;12.076;2023-03-14T23:38:29;10.50;90.10
56498;DHT22;51790;45.558;12.076;2023-03-14T23:44:31;10.60;90.00
56498;DHT22;51790;45.558;12.076;2023-03-14T23:50:36;10.60;89.90
56498;DHT22;51790;45.558;12.076;2023-03-14T23:56:37;10.50;90.10
